createdAt,value
2023-05-07T00:01:39.363Z,79.08
2023-05-07T00:04:06.644Z,79.18
2023-05-07T00:06:34.443Z,79.41
2023-05-07T00:09:02.056Z,78.89
2023-05-07T00:11:30.408Z,78.57
2023-05-07T00:13:57.376Z,77.48
2023-05-07T00:16:24.401Z,76.61
2023-05-07T00:18:51.519Z,77.14
2023-05-07T00:21:18.343Z,76.95
2023-05-07T00:23:45.267Z,77.65
2023-05-07T00:26:12.158Z,77.01
2023-05-07T00:28:42.147Z,77.17
2023-05-07T00:31:09.270Z,78.23
2023-05-07T00:33:36.349Z,79.71
2023-05-07T00:36:03.891Z,79.75
2023-05-07T00:38:30.851Z,80.25
2023-05-07T00:40:57.956Z,80.50
2023-05-07T00:43:24.816Z,80.74
2023-05-07T00:45:53.285Z,80.51
2023-05-07T00:48:20.458Z,80.31
2023-05-07T00:50:47.794Z,78.90
2023-05-07T00:53:15.183Z,79.21
2023-05-07T00:55:42.608Z,79.61
2023-05-07T00:58:09.684Z,79.08
2023-05-07T01:00:36.940Z,79.81
2023-05-07T01:03:06.323Z,80.05
2023-05-07T01:05:34.102Z,80.45
2023-05-07T01:08:04.542Z,79.82
2023-05-07T01:10:31.782Z,79.34
2023-05-07T01:13:00.526Z,80.35
2023-05-07T01:15:28.049Z,80.28
2023-05-07T01:17:56.625Z,80.64
2023-05-07T01:20:31.457Z,80.87
2023-05-07T01:23:02.482Z,81.60
2023-05-07T01:25:30.177Z,81.70
2023-05-07T01:27:59.887Z,81.08
2023-05-07T01:30:31.482Z,80.63
2023-05-07T01:33:07.457Z,80.83
2023-05-07T01:35:41.695Z,79.93
2023-05-07T01:38:11.185Z,79.58
2023-05-07T01:40:39.177Z,78.97
2023-05-07T01:43:07.270Z,78.32
2023-05-07T01:45:36.739Z,78.25
2023-05-07T01:48:05.108Z,77.78
2023-05-07T01:50:34.955Z,78.44
2023-05-07T01:53:02.815Z,79.88
2023-05-07T01:55:31.639Z,80.51
2023-05-07T01:57:59.343Z,81.31
2023-05-07T02:00:28.391Z,81.65
2023-05-07T02:02:56.275Z,81.74
2023-05-07T02:05:52.546Z,82.08
2023-05-07T02:08:28.019Z,81.79
2023-05-07T02:10:56.957Z,81.82
2023-05-07T02:13:24.181Z,81.96
2023-05-07T02:15:51.192Z,81.02
2023-05-07T02:18:18.614Z,80.63
2023-05-07T02:20:45.929Z,80.26
2023-05-07T02:23:12.887Z,79.87
2023-05-07T02:25:39.905Z,79.87
2023-05-07T02:28:08.162Z,80.42
2023-05-07T02:30:46.733Z,81.15
2023-05-07T02:33:14.008Z,81.61
2023-05-07T02:35:41.777Z,81.52
2023-05-07T02:38:09.609Z,81.47
2023-05-07T02:40:36.773Z,80.97
2023-05-07T02:43:03.751Z,80.75
2023-05-07T02:45:32.596Z,81.59
2023-05-07T02:48:00.251Z,82.29
2023-05-07T02:50:27.321Z,82.22
2023-05-07T02:52:55.308Z,82.65
2023-05-07T02:55:22.498Z,83.37
2023-05-07T02:57:49.518Z,83.68
2023-05-07T03:00:19.705Z,83.77
2023-05-07T03:02:58.347Z,83.62
2023-05-07T03:05:25.654Z,83.05
2023-05-07T03:07:56.405Z,82.74
2023-05-07T03:10:23.588Z,82.60
2023-05-07T03:12:50.616Z,82.76
2023-05-07T03:15:18.765Z,82.69
2023-05-07T03:17:45.899Z,82.58
2023-05-07T03:20:14.564Z,82.69
2023-05-07T03:22:42.788Z,83.06
2023-05-07T03:25:11.671Z,83.09
2023-05-07T03:27:38.865Z,82.55
2023-05-07T03:30:08.012Z,82.12
2023-05-07T03:32:35.384Z,81.41
2023-05-07T03:35:06.759Z,80.92
2023-05-07T03:37:36.453Z,81.41
2023-05-07T03:40:04.002Z,81.78
2023-05-07T03:42:34.491Z,82.59
2023-05-07T03:45:01.492Z,83.46
2023-05-07T03:47:30.856Z,83.85
2023-05-07T03:49:57.822Z,84.06
2023-05-07T03:52:26.043Z,84.71
2023-05-07T03:54:56.478Z,84.59
2023-05-07T03:57:23.545Z,84.72
2023-05-07T03:59:50.588Z,84.42
2023-05-07T04:02:18.786Z,84.05
2023-05-07T04:04:46.376Z,83.10
2023-05-07T04:07:13.284Z,82.06
2023-05-07T04:10:00.379Z,80.80
2023-05-07T04:12:28.922Z,80.17
2023-05-07T04:14:55.796Z,79.50
2023-05-07T04:17:24.646Z,79.46
2023-05-07T04:19:51.590Z,78.93
2023-05-07T04:22:19.119Z,78.93
2023-05-07T04:24:46.262Z,79.38
2023-05-07T04:27:13.832Z,78.94
2023-05-07T04:29:42.496Z,79.15
2023-05-07T04:32:12.270Z,79.03
2023-05-07T04:34:40.528Z,79.02
2023-05-07T04:37:07.970Z,79.65
2023-05-07T04:39:34.864Z,79.33
2023-05-07T04:42:01.902Z,79.81
2023-05-07T04:44:29.065Z,79.56
2023-05-07T04:46:57.696Z,80.00
2023-05-07T04:49:25.380Z,79.90
2023-05-07T04:51:54.641Z,78.77
2023-05-07T04:54:23.343Z,77.99
2023-05-07T04:56:50.352Z,76.92
2023-05-07T04:59:17.367Z,73.86
2023-05-07T05:01:44.633Z,72.22
2023-05-07T05:04:13.304Z,69.36
2023-05-07T05:06:41.201Z,67.94
2023-05-07T05:09:08.830Z,68.32
2023-05-07T05:11:35.652Z,69.77
2023-05-07T05:14:02.670Z,69.20
2023-05-07T05:16:29.632Z,68.70
2023-05-07T05:18:56.580Z,67.41
2023-05-07T05:21:25.059Z,67.30
2023-05-07T05:23:57.096Z,66.93
2023-05-07T05:26:25.930Z,69.34
2023-05-07T05:28:52.818Z,67.76
2023-05-07T05:31:22.423Z,67.17
2023-05-07T05:33:50.750Z,67.30
2023-05-07T05:36:18.062Z,66.60
2023-05-07T05:38:48.226Z,66.41
2023-05-07T05:41:15.082Z,66.51
2023-05-07T05:43:42.270Z,65.92
2023-05-07T05:46:10.105Z,65.66
2023-05-07T05:48:37.281Z,65.46
2023-05-07T05:51:05.476Z,66.47
2023-05-07T05:53:32.285Z,66.40
2023-05-07T05:56:00.734Z,65.64
2023-05-07T05:58:28.139Z,65.65
2023-05-07T06:01:00.530Z,63.33
2023-05-07T06:03:29.016Z,59.82
2023-05-07T06:05:58.016Z,59.46
2023-05-07T06:08:25.066Z,59.11
2023-05-07T06:10:52.681Z,57.86
2023-05-07T06:13:21.146Z,58.56
2023-05-07T06:15:48.193Z,59.40
2023-05-07T06:18:15.204Z,57.63
2023-05-07T06:20:42.415Z,55.24
2023-05-07T06:23:17.785Z,52.61
2023-05-07T06:25:49.640Z,53.54
2023-05-07T06:28:16.866Z,50.39
2023-05-07T06:30:45.883Z,47.32
2023-05-07T06:33:13.297Z,44.59
2023-05-07T06:35:40.255Z,43.71
2023-05-07T06:38:07.260Z,45.78
2023-05-07T06:40:34.204Z,47.63
2023-05-07T06:43:01.688Z,49.16
2023-05-07T06:45:36.168Z,49.87
2023-05-07T06:48:06.313Z,46.93
2023-05-07T06:50:42.560Z,44.88
2023-05-07T06:53:09.511Z,44.30
2023-05-07T06:55:36.414Z,44.65
2023-05-07T06:58:03.499Z,42.68
2023-05-07T07:00:30.814Z,40.98
2023-05-07T07:02:58.337Z,39.64
2023-05-07T07:05:29.378Z,39.88
2023-05-07T07:07:57.399Z,39.22
2023-05-07T07:10:24.858Z,39.10
2023-05-07T07:12:52.796Z,38.24
2023-05-07T07:15:21.217Z,37.44
2023-05-07T07:17:49.459Z,36.54
2023-05-07T07:20:16.762Z,37.11
2023-05-07T07:22:46.961Z,37.86
2023-05-07T07:25:15.221Z,37.39
2023-05-07T07:27:42.165Z,36.72
2023-05-07T07:30:10.897Z,36.90
2023-05-07T07:32:40.927Z,39.01
2023-05-07T07:35:09.512Z,39.82
2023-05-07T07:37:37.815Z,39.60
2023-05-07T07:40:08.146Z,38.52
2023-05-07T07:42:36.136Z,38.72
2023-05-07T07:45:03.617Z,37.98
2023-05-07T07:47:34.123Z,35.94
2023-05-07T07:50:01.012Z,35.08
2023-05-07T07:52:28.485Z,34.30
2023-05-07T07:54:55.538Z,34.47
2023-05-07T07:57:24.708Z,34.99
2023-05-07T07:59:52.067Z,36.00
2023-05-07T08:02:20.783Z,36.01
2023-05-07T08:04:49.743Z,36.39
2023-05-07T08:07:17.843Z,37.09
2023-05-07T08:09:46.182Z,37.62
2023-05-07T08:12:14.362Z,37.05
2023-05-07T08:14:43.514Z,38.36
2023-05-07T08:17:11.609Z,38.98
2023-05-07T08:19:39.087Z,38.49
2023-05-07T08:22:08.537Z,38.13
2023-05-07T08:24:35.515Z,39.00
2023-05-07T08:27:02.441Z,39.07
2023-05-07T08:29:29.661Z,38.48
2023-05-07T08:31:58.016Z,39.61
2023-05-07T08:34:24.965Z,38.56
2023-05-07T08:36:54.838Z,38.16
2023-05-07T08:39:24.040Z,39.00
2023-05-07T08:41:56.675Z,38.35
2023-05-07T08:44:29.602Z,38.25
2023-05-07T08:47:01.825Z,38.98
2023-05-07T08:49:30.870Z,39.31
2023-05-07T08:51:58.010Z,39.44
2023-05-07T08:54:27.082Z,40.43
2023-05-07T08:56:54.657Z,39.97
2023-05-07T08:59:21.725Z,38.36
2023-05-07T09:01:48.733Z,38.32
2023-05-07T09:04:17.944Z,37.71
2023-05-07T09:06:46.464Z,37.06
2023-05-07T09:09:18.301Z,38.06
2023-05-07T09:11:45.419Z,39.26
2023-05-07T09:14:14.380Z,39.08
2023-05-07T09:16:44.036Z,38.80
2023-05-07T09:19:11.090Z,39.60
2023-05-07T09:21:45.098Z,38.93
2023-05-07T09:24:15.983Z,38.70
2023-05-07T09:26:44.065Z,39.89
2023-05-07T09:29:13.197Z,39.51
2023-05-07T09:31:41.075Z,40.59
2023-05-07T09:34:11.066Z,39.58
2023-05-07T09:36:41.465Z,39.15
2023-05-07T09:39:10.283Z,37.70
2023-05-07T09:41:45.664Z,37.60
2023-05-07T09:44:29.192Z,38.19
2023-05-07T09:47:00.507Z,38.10
2023-05-07T09:49:36.571Z,37.22
2023-05-07T09:52:07.890Z,37.03
2023-05-07T09:54:39.059Z,37.09
2023-05-07T09:57:10.109Z,37.04
2023-05-07T09:59:38.997Z,39.57
2023-05-07T10:02:11.512Z,37.11
2023-05-07T10:04:47.790Z,37.21
2023-05-07T10:07:18.222Z,36.81
2023-05-07T10:09:49.178Z,36.32
2023-05-07T10:12:27.826Z,36.46
2023-05-07T10:15:23.542Z,37.44
2023-05-07T10:18:03.401Z,36.90
2023-05-07T10:20:38.111Z,36.34
2023-05-07T10:23:10.936Z,35.52
2023-05-07T10:25:44.576Z,34.97
2023-05-07T10:28:22.301Z,35.95
2023-05-07T10:31:09.305Z,34.17
2023-05-07T10:33:45.811Z,34.60
2023-05-07T10:36:14.504Z,34.36
2023-05-07T10:38:41.821Z,32.55
2023-05-07T10:41:11.520Z,33.04
2023-05-07T10:43:45.001Z,31.95
2023-05-07T10:46:21.888Z,33.52
2023-05-07T10:49:11.590Z,32.27
2023-05-07T10:51:45.057Z,31.99
2023-05-07T10:54:23.510Z,33.39
2023-05-07T10:57:36.671Z,32.35
2023-05-07T11:00:43.041Z,30.37
2023-05-07T11:03:14.794Z,30.35
2023-05-07T11:06:14.425Z,31.58
2023-05-07T11:08:57.576Z,35.06
2023-05-07T11:11:48.455Z,33.46
2023-05-07T11:14:47.472Z,33.10
2023-05-07T11:17:31.722Z,33.99
2023-05-07T11:20:05.909Z,33.87
2023-05-07T11:22:44.656Z,30.53
2023-05-07T11:25:27.052Z,31.54
2023-05-07T11:28:06.978Z,31.18
2023-05-07T11:30:36.383Z,30.74
2023-05-07T11:33:07.691Z,35.82
2023-05-07T11:35:37.138Z,36.84
2023-05-07T11:38:06.173Z,36.88
2023-05-07T11:40:35.136Z,35.92
2023-05-07T11:43:11.817Z,33.36
2023-05-07T11:45:40.462Z,33.73
2023-05-07T11:48:07.897Z,32.74
2023-05-07T11:50:35.016Z,32.09
2023-05-07T11:53:26.677Z,32.40
2023-05-07T11:55:54.170Z,32.96
2023-05-07T11:58:23.874Z,32.80
2023-05-07T12:00:56.012Z,33.56
2023-05-07T12:03:25.525Z,33.65
2023-05-07T12:05:54.621Z,32.92
2023-05-07T12:08:22.961Z,31.90
2023-05-07T12:10:51.273Z,31.72
2023-05-07T12:13:19.275Z,32.51
2023-05-07T12:17:02.259Z,32.65
2023-05-07T12:19:32.025Z,33.13
2023-05-07T12:21:59.529Z,34.00
2023-05-07T12:24:26.904Z,34.65
2023-05-07T12:26:54.271Z,33.29
2023-05-07T12:29:22.960Z,34.44
2023-05-07T12:31:51.104Z,37.26
2023-05-07T12:34:18.267Z,38.46
2023-05-07T12:36:49.283Z,36.58
2023-05-07T12:39:17.716Z,37.91
2023-05-07T12:41:55.212Z,35.42
2023-05-07T12:44:24.207Z,37.46
2023-05-07T12:46:51.804Z,38.51
2023-05-07T12:49:25.418Z,38.51
2023-05-07T12:51:55.081Z,38.08
2023-05-07T12:54:32.144Z,38.18
2023-05-07T12:57:03.672Z,38.85
2023-05-07T12:59:35.480Z,37.41
2023-05-07T13:02:03.283Z,37.73
2023-05-07T13:04:30.736Z,38.87
2023-05-07T13:06:59.142Z,39.73
2023-05-07T13:09:27.231Z,39.71
2023-05-07T13:11:54.529Z,38.84
2023-05-07T13:14:21.968Z,39.23
2023-05-07T13:16:49.452Z,38.87
2023-05-07T13:19:16.998Z,38.76
2023-05-07T13:21:44.176Z,39.02
2023-05-07T13:24:15.683Z,39.16
2023-05-07T13:26:45.963Z,39.51
2023-05-07T13:29:13.415Z,40.16
2023-05-07T13:36:07.055Z,40.49
2023-05-07T13:38:33.977Z,41.04
2023-05-07T13:41:04.908Z,41.24
2023-05-07T13:43:32.211Z,42.25
2023-05-07T13:45:59.353Z,44.62
2023-05-07T13:48:26.568Z,50.57
2023-05-07T13:50:53.708Z,54.49
2023-05-07T13:53:23.258Z,55.08
2023-05-07T13:55:51.868Z,50.68
2023-05-07T13:59:35.200Z,51.77
2023-05-07T14:02:03.599Z,54.17
2023-05-07T14:04:31.778Z,65.70
2023-05-07T14:06:59.322Z,73.87
2023-05-07T14:09:26.300Z,74.55
2023-05-07T14:11:53.325Z,77.04
2023-05-07T14:14:21.929Z,80.83
2023-05-07T14:16:50.921Z,81.31
2023-05-07T14:19:19.807Z,81.36
2023-05-07T14:21:49.206Z,80.23
2023-05-07T14:24:27.177Z,76.46
2023-05-07T14:27:01.878Z,80.37
2023-05-07T14:29:29.293Z,82.75
2023-05-07T14:31:56.470Z,84.17
2023-05-07T14:34:25.194Z,86.39
2023-05-07T14:36:52.174Z,87.47
2023-05-07T14:40:11.183Z,89.28
2023-05-07T14:42:38.341Z,90.82
2023-05-07T14:45:07.438Z,89.12
2023-05-07T14:47:34.835Z,89.33
2023-05-07T14:50:04.302Z,89.03
2023-05-07T14:52:31.201Z,89.21
2023-05-07T14:54:58.233Z,89.86
2023-05-07T14:57:25.354Z,90.38
2023-05-07T14:59:52.351Z,89.65
2023-05-07T15:02:21.384Z,89.26
2023-05-07T15:04:48.620Z,89.84
2023-05-07T15:07:17.115Z,90.11
2023-05-07T15:09:45.445Z,90.44
2023-05-07T15:12:14.818Z,90.52
2023-05-07T15:14:42.601Z,90.93
2023-05-07T15:17:09.820Z,92.06
2023-05-07T15:19:37.255Z,91.28
2023-05-07T15:22:04.615Z,90.17
2023-05-07T15:24:33.146Z,91.08
2023-05-07T15:27:00.177Z,91.15
2023-05-07T15:29:29.689Z,91.02
2023-05-07T15:31:58.947Z,91.33
2023-05-07T15:34:25.853Z,92.09
2023-05-07T15:36:52.801Z,92.01
2023-05-07T15:39:19.695Z,91.95
2023-05-07T15:41:48.803Z,92.05
2023-05-07T15:44:15.671Z,90.92
2023-05-07T15:46:42.817Z,91.18
2023-05-07T15:49:12.233Z,91.15
2023-05-07T15:51:39.432Z,90.89
2023-05-07T15:54:06.624Z,89.89
2023-05-07T15:56:33.592Z,89.50
2023-05-07T15:59:02.205Z,90.17
2023-05-07T16:01:32.094Z,89.07
2023-05-07T16:03:59.205Z,89.00
2023-05-07T16:06:26.233Z,89.56
2023-05-07T16:08:53.596Z,89.23
2023-05-07T16:11:20.656Z,89.70
2023-05-07T16:13:47.635Z,89.56
2023-05-07T16:16:16.430Z,89.89
2023-05-07T16:18:43.232Z,88.49
2023-05-07T16:21:10.306Z,89.29
2023-05-07T16:23:37.952Z,89.31
2023-05-07T16:26:05.172Z,88.54
2023-05-07T16:28:32.284Z,88.65
2023-05-07T16:31:00.990Z,88.38
2023-05-07T16:33:29.597Z,89.17
2023-05-07T16:35:57.257Z,89.00
2023-05-07T16:38:24.575Z,89.22
2023-05-07T16:40:51.585Z,89.37
2023-05-07T16:43:18.776Z,87.85
2023-05-07T16:45:46.204Z,88.32
2023-05-07T16:48:13.386Z,88.67
2023-05-07T16:50:41.930Z,86.31
2023-05-07T16:53:08.917Z,86.18
2023-05-07T16:55:38.138Z,87.02
2023-05-07T16:58:06.822Z,85.83
2023-05-07T17:00:48.559Z,85.68
2023-05-07T17:03:18.225Z,86.75
2023-05-07T17:05:46.895Z,86.71
2023-05-07T17:08:15.144Z,86.37
2023-05-07T17:10:56.822Z,86.74
2023-05-07T17:13:24.417Z,86.74
2023-05-07T17:15:51.428Z,85.86
2023-05-07T17:18:18.427Z,85.94
2023-05-07T17:20:46.820Z,85.96
2023-05-07T17:23:13.777Z,85.18
2023-05-07T17:25:41.015Z,85.04
2023-05-07T17:28:08.628Z,84.73
2023-05-07T17:30:35.553Z,84.89
2023-05-07T17:33:16.702Z,84.68
2023-05-07T17:35:48.943Z,84.07
2023-05-07T17:38:15.997Z,84.53
2023-05-07T17:40:43.400Z,84.36
2023-05-07T17:43:10.299Z,84.66
2023-05-07T17:45:37.706Z,84.22
2023-05-07T17:48:05.334Z,83.84
2023-05-07T17:50:32.253Z,84.16
2023-05-07T17:53:00.479Z,84.43
2023-05-07T17:55:27.494Z,84.13
2023-05-07T17:57:54.703Z,84.31
2023-05-07T18:00:21.843Z,84.58
2023-05-07T18:02:51.843Z,84.51
2023-05-07T18:05:18.810Z,84.57
2023-05-07T18:07:45.979Z,84.26
2023-05-07T18:10:14.855Z,84.76
2023-05-07T18:12:44.199Z,84.40
2023-05-07T18:15:12.496Z,84.83
2023-05-07T18:17:40.304Z,84.95
2023-05-07T18:20:08.825Z,84.81
2023-05-07T18:22:36.143Z,85.38
2023-05-07T18:25:03.623Z,85.06
2023-05-07T18:27:31.868Z,85.25
2023-05-07T18:29:58.808Z,84.85
2023-05-07T18:32:25.896Z,85.00
2023-05-07T18:34:54.378Z,85.28
2023-05-07T18:37:23.452Z,85.63
2023-05-07T18:39:52.179Z,85.79
2023-05-07T18:42:21.761Z,85.76
2023-05-07T18:44:50.356Z,85.38
2023-05-07T18:47:17.363Z,85.73
2023-05-07T18:49:45.376Z,85.65
2023-05-07T18:52:12.996Z,85.65
2023-05-07T18:54:40.302Z,85.55
2023-05-07T18:57:07.269Z,85.28
2023-05-07T18:59:34.391Z,84.83
2023-05-07T19:02:02.691Z,84.78
2023-05-07T19:04:30.225Z,85.35
2023-05-07T19:06:57.211Z,85.50
2023-05-07T19:09:24.286Z,85.14
2023-05-07T19:11:51.643Z,85.35
2023-05-07T19:14:18.737Z,85.74
2023-05-07T19:16:46.558Z,85.29
2023-05-07T19:19:15.319Z,85.90
2023-05-07T19:21:42.507Z,86.36
2023-05-07T19:24:09.377Z,86.55
2023-05-07T19:26:36.407Z,86.51
2023-05-07T19:29:16.344Z,86.16
2023-05-07T19:31:44.553Z,86.17
2023-05-07T19:34:11.538Z,86.05
2023-05-07T19:36:39.851Z,86.04
2023-05-07T19:39:06.813Z,85.71
2023-05-07T19:41:35.926Z,86.31
2023-05-07T19:44:02.891Z,86.57
2023-05-07T19:46:29.779Z,86.31
2023-05-07T19:48:56.820Z,86.12
2023-05-07T19:51:23.975Z,85.93
2023-05-07T19:53:52.279Z,85.74
2023-05-07T19:56:19.536Z,85.20
2023-05-07T19:58:46.725Z,88.69
2023-05-07T20:01:13.806Z,89.13
2023-05-07T20:03:41.774Z,89.65
2023-05-07T20:06:08.897Z,90.05
2023-05-07T20:08:36.121Z,89.41
2023-05-07T20:11:04.437Z,89.60
2023-05-07T20:13:31.413Z,89.14
2023-05-07T20:15:59.330Z,89.92
2023-05-07T20:18:28.665Z,89.79
2023-05-07T20:20:56.209Z,89.58
2023-05-07T20:23:23.164Z,88.93
2023-05-07T20:25:50.402Z,88.75
2023-05-07T20:28:20.472Z,88.72
2023-05-07T20:30:47.376Z,89.43
2023-05-07T20:33:14.299Z,90.17
2023-05-07T20:35:41.623Z,91.11
2023-05-07T20:38:08.719Z,91.19
2023-05-07T20:40:36.150Z,91.05
2023-05-07T20:43:03.326Z,91.66
2023-05-07T20:45:32.212Z,92.15
2023-05-07T20:48:00.299Z,92.45
2023-05-07T20:50:27.912Z,91.81
2023-05-07T20:52:54.893Z,91.92
2023-05-07T20:55:22.048Z,91.97
2023-05-07T20:57:49.293Z,91.73
2023-05-07T21:04:25.150Z,89.97
2023-05-07T21:06:52.323Z,89.72
2023-05-07T21:09:20.120Z,89.08
2023-05-07T21:11:47.859Z,88.14
2023-05-07T21:14:14.715Z,87.55
2023-05-07T21:16:41.717Z,87.71
2023-05-07T21:19:08.908Z,88.33
2023-05-07T21:21:37.531Z,88.77
2023-05-07T21:24:06.660Z,88.78
2023-05-07T21:26:33.604Z,88.62
2023-05-07T21:29:00.652Z,88.10
2023-05-07T21:31:27.691Z,88.25
2023-05-07T21:33:54.898Z,88.82
2023-05-07T21:36:48.647Z,88.64
2023-05-07T21:39:15.688Z,88.55
2023-05-07T21:41:42.764Z,88.49
2023-05-07T21:44:17.049Z,88.48
2023-05-07T21:46:44.260Z,88.47
2023-05-07T21:49:11.220Z,88.61
2023-05-07T21:51:38.283Z,88.45
2023-05-07T21:54:06.505Z,88.26
2023-05-07T21:56:33.537Z,88.60
2023-05-07T21:59:00.440Z,88.84
2023-05-07T22:01:27.538Z,89.11
2023-05-07T22:03:54.687Z,89.00
2023-05-07T22:06:22.028Z,88.87
2023-05-07T22:08:49.082Z,89.02
2023-05-07T22:11:17.449Z,89.00
2023-05-07T22:13:44.936Z,88.88
2023-05-07T22:16:16.687Z,89.07
2023-05-07T22:18:43.830Z,89.22
2023-05-07T22:21:11.322Z,89.44
2023-05-07T22:23:38.545Z,89.16
2023-05-07T22:26:10.975Z,89.01
2023-05-07T22:28:39.988Z,89.34
2023-05-07T22:31:06.946Z,89.22
2023-05-07T22:33:34.065Z,89.29
2023-05-07T22:36:01.291Z,89.33
2023-05-07T22:38:28.202Z,89.61
2023-05-07T22:40:55.199Z,89.52
2023-05-07T22:43:22.074Z,89.41
2023-05-07T22:45:58.767Z,89.26
2023-05-07T22:48:25.902Z,89.19
2023-05-07T22:50:52.957Z,89.24
2023-05-07T22:53:20.092Z,88.99
2023-05-07T22:55:47.133Z,88.66
2023-05-07T22:58:14.097Z,89.04
2023-05-07T23:00:41.723Z,89.06
2023-05-07T23:03:10.440Z,88.85
2023-05-07T23:05:37.621Z,88.53
2023-05-07T23:08:05.137Z,88.52
2023-05-07T23:10:32.085Z,88.64
2023-05-07T23:12:59.103Z,88.74
2023-05-07T23:15:26.005Z,88.19
2023-05-07T23:17:52.888Z,88.13
2023-05-07T23:20:22.256Z,87.91
2023-05-07T23:22:49.846Z,87.97
2023-05-07T23:25:17.104Z,88.46
2023-05-07T23:27:44.026Z,89.03
2023-05-07T23:30:12.809Z,88.81
2023-05-07T23:32:39.953Z,89.22
2023-05-07T23:35:08.435Z,89.21
2023-05-07T23:37:36.747Z,89.25
2023-05-07T23:40:04.753Z,89.24
2023-05-07T23:42:32.121Z,89.00
2023-05-07T23:49:00.285Z,89.31
2023-05-07T23:51:27.388Z,88.55
2023-05-07T23:53:55.660Z,89.09
2023-05-07T23:56:22.522Z,89.22
2023-05-07T23:58:49.429Z,89.17
